sensor_id;sensor_type;location;lat;lon;timestamp;P1;durP1;ratioP1;P2;durP2;ratioP2
71888;SDS011;59762;49.998;14.858;2023-08-06T00:00:19;6.97;;;5.50;;
71888;SDS011;59762;49.998;14.858;2023-08-06T00:03:05;7.95;;;5.53;;
71888;SDS011;59762;49.998;14.858;2023-08-06T00:05:31;7.25;;;5.40;;
71888;SDS011;59762;49.998;14.858;2023-08-06T00:07:57;10.73;;;5.25;;
71888;SDS011;59762;49.998;14.858;2023-08-06T00:10:22;9.02;;;5.53;;
71888;SDS011;59762;49.998;14.858;2023-08-06T00:12:48;6.80;;;5.30;;
71888;SDS011;59762;49.998;14.858;2023-08-06T00:15:13;8.65;;;5.88;;
71888;SDS011;59762;49.998;14.858;2023-08-06T00:17:39;6.32;;;5.40;;
71888;SDS011;59762;49.998;14.858;2023-08-06T00:20:05;7.70;;;5.13;;
71888;SDS011;59762;49.998;14.858;2023-08-06T00:22:32;8.38;;;6.15;;
71888;SDS011;59762;49.998;14.858;2023-08-06T00:24:59;10.00;;;5.68;;
71888;SDS011;59762;49.998;14.858;2023-08-06T00:27:25;7.50;;;5.28;;
71888;SDS011;59762;49.998;14.858;2023-08-06T00:29:50;7.20;;;5.32;;
71888;SDS011;59762;49.998;14.858;2023-08-06T00:32:17;9.27;;;5.57;;
71888;SDS011;59762;49.998;14.858;2023-08-06T00:34:42;11.63;;;5.95;;
71888;SDS011;59762;49.998;14.858;2023-08-06T00:37:08;7.60;;;5.80;;
71888;SDS011;59762;49.998;14.858;2023-08-06T00:39:34;8.68;;;5.80;;
71888;SDS011;59762;49.998;14.858;2023-08-06T00:42:00;8.32;;;5.47;;
71888;SDS011;59762;49.998;14.858;2023-08-06T00:44:25;8.10;;;5.30;;
71888;SDS011;59762;49.998;14.858;2023-08-06T00:46:51;8.55;;;5.90;;
71888;SDS011;59762;49.998;14.858;2023-08-06T00:49:17;8.05;;;6.15;;
71888;SDS011;59762;49.998;14.858;2023-08-06T00:51:43;7.85;;;6.07;;
71888;SDS011;59762;49.998;14.858;2023-08-06T00:54:09;9.70;;;6.38;;
71888;SDS011;59762;49.998;14.858;2023-08-06T00:56:35;8.73;;;6.07;;
71888;SDS011;59762;49.998;14.858;2023-08-06T00:59:03;7.90;;;5.82;;
71888;SDS011;59762;49.998;14.858;2023-08-06T01:01:32;8.13;;;5.72;;
71888;SDS011;59762;49.998;14.858;2023-08-06T01:03:57;8.98;;;6.65;;
71888;SDS011;59762;49.998;14.858;2023-08-06T01:06:30;8.95;;;6.00;;
71888;SDS011;59762;49.998;14.858;2023-08-06T01:09:08;9.32;;;6.90;;
71888;SDS011;59762;49.998;14.858;2023-08-06T01:11:59;9.07;;;6.45;;
71888;SDS011;59762;49.998;14.858;2023-08-06T01:14:30;10.07;;;6.43;;
71888;SDS011;59762;49.998;14.858;2023-08-06T01:17:03;8.65;;;6.60;;
71888;SDS011;59762;49.998;14.858;2023-08-06T01:19:29;9.05;;;6.97;;
71888;SDS011;59762;49.998;14.858;2023-08-06T01:21:55;10.68;;;7.55;;
71888;SDS011;59762;49.998;14.858;2023-08-06T01:24:21;12.55;;;7.15;;
71888;SDS011;59762;49.998;14.858;2023-08-06T01:29:23;12.63;;;8.07;;
71888;SDS011;59762;49.998;14.858;2023-08-06T01:31:53;12.50;;;6.93;;
71888;SDS011;59762;49.998;14.858;2023-08-06T01:34:27;9.82;;;7.00;;
71888;SDS011;59762;49.998;14.858;2023-08-06T01:36:56;11.90;;;7.75;;
71888;SDS011;59762;49.998;14.858;2023-08-06T01:39:23;11.25;;;7.28;;
71888;SDS011;59762;49.998;14.858;2023-08-06T01:41:49;11.05;;;7.20;;
71888;SDS011;59762;49.998;14.858;2023-08-06T01:44:15;9.55;;;6.78;;
71888;SDS011;59762;49.998;14.858;2023-08-06T01:46:41;11.55;;;7.25;;
71888;SDS011;59762;49.998;14.858;2023-08-06T01:49:07;13.32;;;7.00;;
71888;SDS011;59762;49.998;14.858;2023-08-06T01:51:33;7.82;;;5.68;;
71888;SDS011;59762;49.998;14.858;2023-08-06T01:53:58;10.32;;;7.03;;
71888;SDS011;59762;49.998;14.858;2023-08-06T01:56:24;8.75;;;6.28;;
71888;SDS011;59762;49.998;14.858;2023-08-06T01:58:49;8.75;;;6.22;;
71888;SDS011;59762;49.998;14.858;2023-08-06T02:01:15;9.68;;;6.00;;
71888;SDS011;59762;49.998;14.858;2023-08-06T02:03:41;9.57;;;6.30;;
71888;SDS011;59762;49.998;14.858;2023-08-06T02:06:07;9.38;;;5.90;;
71888;SDS011;59762;49.998;14.858;2023-08-06T02:08:32;7.65;;;5.47;;
71888;SDS011;59762;49.998;14.858;2023-08-06T02:10:58;11.07;;;5.70;;
71888;SDS011;59762;49.998;14.858;2023-08-06T02:13:24;8.93;;;6.47;;
71888;SDS011;59762;49.998;14.858;2023-08-06T02:15:50;10.27;;;7.32;;
71888;SDS011;59762;49.998;14.858;2023-08-06T02:18:15;11.05;;;7.30;;
71888;SDS011;59762;49.998;14.858;2023-08-06T02:20:42;9.10;;;5.88;;
71888;SDS011;59762;49.998;14.858;2023-08-06T02:23:08;9.18;;;5.97;;
71888;SDS011;59762;49.998;14.858;2023-08-06T02:25:34;9.00;;;5.93;;
71888;SDS011;59762;49.998;14.858;2023-08-06T02:28:00;9.05;;;6.30;;
71888;SDS011;59762;49.998;14.858;2023-08-06T02:30:26;10.02;;;6.32;;
71888;SDS011;59762;49.998;14.858;2023-08-06T02:32:52;9.32;;;5.82;;
71888;SDS011;59762;49.998;14.858;2023-08-06T02:35:18;8.82;;;5.43;;
71888;SDS011;59762;49.998;14.858;2023-08-06T02:37:43;6.20;;;5.40;;
71888;SDS011;59762;49.998;14.858;2023-08-06T02:40:09;7.70;;;5.25;;
71888;SDS011;59762;49.998;14.858;2023-08-06T02:42:35;5.70;;;4.38;;
71888;SDS011;59762;49.998;14.858;2023-08-06T02:45:01;6.82;;;4.90;;
71888;SDS011;59762;49.998;14.858;2023-08-06T02:47:26;6.88;;;4.75;;
71888;SDS011;59762;49.998;14.858;2023-08-06T02:49:52;7.45;;;4.32;;
71888;SDS011;59762;49.998;14.858;2023-08-06T02:52:18;5.82;;;4.28;;
71888;SDS011;59762;49.998;14.858;2023-08-06T02:54:44;5.20;;;4.07;;
71888;SDS011;59762;49.998;14.858;2023-08-06T02:57:09;4.88;;;3.58;;
71888;SDS011;59762;49.998;14.858;2023-08-06T02:59:35;4.97;;;3.78;;
71888;SDS011;59762;49.998;14.858;2023-08-06T03:02:01;7.57;;;4.05;;
71888;SDS011;59762;49.998;14.858;2023-08-06T03:04:27;5.18;;;4.05;;
71888;SDS011;59762;49.998;14.858;2023-08-06T03:06:52;6.15;;;4.13;;
71888;SDS011;59762;49.998;14.858;2023-08-06T03:09:18;5.22;;;3.17;;
71888;SDS011;59762;49.998;14.858;2023-08-06T03:11:44;4.63;;;3.72;;
71888;SDS011;59762;49.998;14.858;2023-08-06T03:14:10;5.75;;;3.88;;
71888;SDS011;59762;49.998;14.858;2023-08-06T03:16:35;5.80;;;3.50;;
71888;SDS011;59762;49.998;14.858;2023-08-06T03:19:01;3.65;;;3.22;;
71888;SDS011;59762;49.998;14.858;2023-08-06T03:21:27;4.50;;;3.30;;
71888;SDS011;59762;49.998;14.858;2023-08-06T03:23:53;3.67;;;3.08;;
71888;SDS011;59762;49.998;14.858;2023-08-06T03:26:18;4.22;;;3.13;;
71888;SDS011;59762;49.998;14.858;2023-08-06T03:28:44;4.70;;;3.58;;
71888;SDS011;59762;49.998;14.858;2023-08-06T03:31:10;4.75;;;3.00;;
71888;SDS011;59762;49.998;14.858;2023-08-06T03:33:36;4.80;;;3.38;;
71888;SDS011;59762;49.998;14.858;2023-08-06T03:36:01;4.80;;;3.38;;
71888;SDS011;59762;49.998;14.858;2023-08-06T03:38:27;4.57;;;3.33;;
71888;SDS011;59762;49.998;14.858;2023-08-06T03:40:53;4.88;;;3.42;;
71888;SDS011;59762;49.998;14.858;2023-08-06T03:43:19;5.15;;;3.60;;
71888;SDS011;59762;49.998;14.858;2023-08-06T03:45:45;6.38;;;3.00;;
71888;SDS011;59762;49.998;14.858;2023-08-06T03:48:11;4.88;;;3.30;;
71888;SDS011;59762;49.998;14.858;2023-08-06T03:50:36;4.10;;;2.88;;
71888;SDS011;59762;49.998;14.858;2023-08-06T03:53:03;4.93;;;3.13;;
71888;SDS011;59762;49.998;14.858;2023-08-06T03:55:29;4.95;;;3.45;;
71888;SDS011;59762;49.998;14.858;2023-08-06T03:57:55;4.50;;;3.22;;
71888;SDS011;59762;49.998;14.858;2023-08-06T04:00:20;4.85;;;3.40;;
71888;SDS011;59762;49.998;14.858;2023-08-06T04:02:46;4.88;;;3.50;;
71888;SDS011;59762;49.998;14.858;2023-08-06T04:05:12;5.80;;;3.88;;
71888;SDS011;59762;49.998;14.858;2023-08-06T04:07:38;6.90;;;4.30;;
71888;SDS011;59762;49.998;14.858;2023-08-06T04:10:04;6.05;;;3.83;;
71888;SDS011;59762;49.998;14.858;2023-08-06T04:12:30;4.00;;;3.13;;
71888;SDS011;59762;49.998;14.858;2023-08-06T04:15:00;4.70;;;3.60;;
71888;SDS011;59762;49.998;14.858;2023-08-06T04:17:26;4.55;;;3.58;;
71888;SDS011;59762;49.998;14.858;2023-08-06T04:19:52;5.13;;;3.83;;
71888;SDS011;59762;49.998;14.858;2023-08-06T04:22:20;7.60;;;4.10;;
71888;SDS011;59762;49.998;14.858;2023-08-06T04:24:46;5.75;;;4.43;;
71888;SDS011;59762;49.998;14.858;2023-08-06T04:27:13;5.63;;;4.60;;
71888;SDS011;59762;49.998;14.858;2023-08-06T04:29:39;5.03;;;4.38;;
71888;SDS011;59762;49.998;14.858;2023-08-06T04:32:06;6.93;;;4.72;;
71888;SDS011;59762;49.998;14.858;2023-08-06T04:34:34;6.50;;;4.75;;
71888;SDS011;59762;49.998;14.858;2023-08-06T04:37:02;6.55;;;5.28;;
71888;SDS011;59762;49.998;14.858;2023-08-06T04:39:28;6.10;;;4.65;;
71888;SDS011;59762;49.998;14.858;2023-08-06T04:41:55;6.18;;;4.95;;
71888;SDS011;59762;49.998;14.858;2023-08-06T04:44:21;5.90;;;4.97;;
71888;SDS011;59762;49.998;14.858;2023-08-06T04:46:47;6.38;;;4.65;;
71888;SDS011;59762;49.998;14.858;2023-08-06T04:49:13;7.13;;;5.25;;
71888;SDS011;59762;49.998;14.858;2023-08-06T04:51:38;4.28;;;3.80;;
71888;SDS011;59762;49.998;14.858;2023-08-06T04:54:04;6.00;;;4.90;;
71888;SDS011;59762;49.998;14.858;2023-08-06T04:56:30;5.40;;;4.22;;
71888;SDS011;59762;49.998;14.858;2023-08-06T04:58:57;5.88;;;4.28;;
71888;SDS011;59762;49.998;14.858;2023-08-06T05:01:22;5.13;;;3.83;;
71888;SDS011;59762;49.998;14.858;2023-08-06T05:03:48;5.30;;;3.70;;
71888;SDS011;59762;49.998;14.858;2023-08-06T05:06:14;5.97;;;4.40;;
71888;SDS011;59762;49.998;14.858;2023-08-06T05:08:39;6.13;;;3.80;;
71888;SDS011;59762;49.998;14.858;2023-08-06T05:11:05;3.70;;;3.13;;
71888;SDS011;59762;49.998;14.858;2023-08-06T05:13:31;4.28;;;2.88;;
71888;SDS011;59762;49.998;14.858;2023-08-06T05:15:56;3.95;;;3.17;;
71888;SDS011;59762;49.998;14.858;2023-08-06T05:18:22;5.82;;;3.40;;
71888;SDS011;59762;49.998;14.858;2023-08-06T05:20:48;4.18;;;2.90;;
71888;SDS011;59762;49.998;14.858;2023-08-06T05:23:13;4.40;;;3.30;;
71888;SDS011;59762;49.998;14.858;2023-08-06T05:25:39;4.68;;;3.42;;
71888;SDS011;59762;49.998;14.858;2023-08-06T05:28:05;4.43;;;3.35;;
71888;SDS011;59762;49.998;14.858;2023-08-06T05:30:31;4.13;;;2.92;;
71888;SDS011;59762;49.998;14.858;2023-08-06T05:32:57;4.68;;;3.20;;
71888;SDS011;59762;49.998;14.858;2023-08-06T05:35:23;3.92;;;3.03;;
71888;SDS011;59762;49.998;14.858;2023-08-06T05:37:49;3.55;;;3.15;;
71888;SDS011;59762;49.998;14.858;2023-08-06T05:40:15;6.53;;;3.22;;
71888;SDS011;59762;49.998;14.858;2023-08-06T05:42:41;7.45;;;3.25;;
71888;SDS011;59762;49.998;14.858;2023-08-06T05:45:07;6.43;;;3.50;;
71888;SDS011;59762;49.998;14.858;2023-08-06T05:47:33;6.10;;;3.58;;
71888;SDS011;59762;49.998;14.858;2023-08-06T05:49:59;4.30;;;3.22;;
71888;SDS011;59762;49.998;14.858;2023-08-06T05:52:24;8.45;;;3.92;;
71888;SDS011;59762;49.998;14.858;2023-08-06T05:54:50;6.53;;;3.38;;
71888;SDS011;59762;49.998;14.858;2023-08-06T05:57:16;4.50;;;3.60;;
71888;SDS011;59762;49.998;14.858;2023-08-06T05:59:42;4.68;;;3.22;;
71888;SDS011;59762;49.998;14.858;2023-08-06T06:02:08;4.63;;;3.78;;
71888;SDS011;59762;49.998;14.858;2023-08-06T06:04:34;3.60;;;3.15;;
71888;SDS011;59762;49.998;14.858;2023-08-06T06:07:00;11.75;;;4.07;;
71888;SDS011;59762;49.998;14.858;2023-08-06T06:09:26;4.40;;;3.70;;
71888;SDS011;59762;49.998;14.858;2023-08-06T06:11:51;7.90;;;4.22;;
71888;SDS011;59762;49.998;14.858;2023-08-06T06:14:17;6.35;;;3.78;;
71888;SDS011;59762;49.998;14.858;2023-08-06T06:16:44;7.53;;;3.88;;
71888;SDS011;59762;49.998;14.858;2023-08-06T06:19:10;5.85;;;4.15;;
71888;SDS011;59762;49.998;14.858;2023-08-06T06:21:36;5.53;;;4.32;;
71888;SDS011;59762;49.998;14.858;2023-08-06T06:24:03;29.10;;;11.38;;
71888;SDS011;59762;49.998;14.858;2023-08-06T06:26:29;7.22;;;4.60;;
71888;SDS011;59762;49.998;14.858;2023-08-06T06:28:55;8.45;;;4.85;;
71888;SDS011;59762;49.998;14.858;2023-08-06T06:31:21;7.53;;;4.25;;
71888;SDS011;59762;49.998;14.858;2023-08-06T06:33:47;5.35;;;4.60;;
71888;SDS011;59762;49.998;14.858;2023-08-06T06:36:12;7.47;;;5.28;;
71888;SDS011;59762;49.998;14.858;2023-08-06T06:38:38;6.45;;;4.78;;
71888;SDS011;59762;49.998;14.858;2023-08-06T06:41:04;8.27;;;5.50;;
71888;SDS011;59762;49.998;14.858;2023-08-06T06:43:30;5.63;;;4.57;;
71888;SDS011;59762;49.998;14.858;2023-08-06T06:45:56;4.97;;;3.80;;
71888;SDS011;59762;49.998;14.858;2023-08-06T06:48:26;7.00;;;3.95;;
71888;SDS011;59762;49.998;14.858;2023-08-06T06:50:53;5.35;;;3.92;;
71888;SDS011;59762;49.998;14.858;2023-08-06T06:53:18;6.75;;;4.60;;
71888;SDS011;59762;49.998;14.858;2023-08-06T06:55:44;5.47;;;4.28;;
71888;SDS011;59762;49.998;14.858;2023-08-06T06:58:10;5.28;;;4.03;;
71888;SDS011;59762;49.998;14.858;2023-08-06T07:00:36;4.05;;;3.38;;
71888;SDS011;59762;49.998;14.858;2023-08-06T07:03:02;4.05;;;3.17;;
71888;SDS011;59762;49.998;14.858;2023-08-06T07:05:28;4.25;;;3.40;;
71888;SDS011;59762;49.998;14.858;2023-08-06T07:07:54;5.00;;;3.65;;
71888;SDS011;59762;49.998;14.858;2023-08-06T07:10:20;4.30;;;3.50;;
71888;SDS011;59762;49.998;14.858;2023-08-06T07:12:46;4.30;;;3.15;;
71888;SDS011;59762;49.998;14.858;2023-08-06T07:15:11;4.57;;;3.58;;
71888;SDS011;59762;49.998;14.858;2023-08-06T07:17:37;4.78;;;3.72;;
71888;SDS011;59762;49.998;14.858;2023-08-06T07:20:03;7.50;;;3.35;;
71888;SDS011;59762;49.998;14.858;2023-08-06T07:22:29;5.88;;;3.53;;
71888;SDS011;59762;49.998;14.858;2023-08-06T07:24:55;4.32;;;3.40;;
71888;SDS011;59762;49.998;14.858;2023-08-06T07:27:21;4.25;;;3.00;;
71888;SDS011;59762;49.998;14.858;2023-08-06T07:29:46;5.20;;;3.55;;
71888;SDS011;59762;49.998;14.858;2023-08-06T07:32:13;6.97;;;3.85;;
71888;SDS011;59762;49.998;14.858;2023-08-06T07:34:39;6.35;;;3.90;;
71888;SDS011;59762;49.998;14.858;2023-08-06T07:37:05;5.28;;;3.97;;
71888;SDS011;59762;49.998;14.858;2023-08-06T07:39:31;5.07;;;4.20;;
71888;SDS011;59762;49.998;14.858;2023-08-06T07:41:57;5.72;;;3.65;;
71888;SDS011;59762;49.998;14.858;2023-08-06T07:44:22;6.05;;;3.63;;
71888;SDS011;59762;49.998;14.858;2023-08-06T07:46:49;4.88;;;3.58;;
71888;SDS011;59762;49.998;14.858;2023-08-06T07:49:15;4.32;;;3.00;;
71888;SDS011;59762;49.998;14.858;2023-08-06T07:51:41;5.20;;;3.30;;
71888;SDS011;59762;49.998;14.858;2023-08-06T07:54:06;4.47;;;2.90;;
71888;SDS011;59762;49.998;14.858;2023-08-06T07:56:32;5.05;;;3.53;;
71888;SDS011;59762;49.998;14.858;2023-08-06T07:58:59;5.10;;;3.55;;
71888;SDS011;59762;49.998;14.858;2023-08-06T08:01:24;5.38;;;3.88;;
71888;SDS011;59762;49.998;14.858;2023-08-06T08:03:50;5.55;;;3.65;;
71888;SDS011;59762;49.998;14.858;2023-08-06T08:06:16;6.20;;;4.05;;
71888;SDS011;59762;49.998;14.858;2023-08-06T08:08:41;8.45;;;4.90;;
71888;SDS011;59762;49.998;14.858;2023-08-06T08:11:08;9.00;;;4.88;;
71888;SDS011;59762;49.998;14.858;2023-08-06T08:13:33;6.53;;;4.80;;
71888;SDS011;59762;49.998;14.858;2023-08-06T08:16:00;7.35;;;5.00;;
71888;SDS011;59762;49.998;14.858;2023-08-06T08:18:26;5.93;;;4.90;;
71888;SDS011;59762;49.998;14.858;2023-08-06T08:20:52;6.20;;;4.90;;
71888;SDS011;59762;49.998;14.858;2023-08-06T08:23:18;5.90;;;4.88;;
71888;SDS011;59762;49.998;14.858;2023-08-06T08:25:44;8.07;;;4.75;;
71888;SDS011;59762;49.998;14.858;2023-08-06T08:28:09;7.22;;;4.90;;
71888;SDS011;59762;49.998;14.858;2023-08-06T08:30:35;8.13;;;5.20;;
71888;SDS011;59762;49.998;14.858;2023-08-06T08:33:01;7.97;;;5.43;;
71888;SDS011;59762;49.998;14.858;2023-08-06T08:35:27;6.68;;;5.05;;
71888;SDS011;59762;49.998;14.858;2023-08-06T08:37:52;8.30;;;5.10;;
71888;SDS011;59762;49.998;14.858;2023-08-06T08:40:18;7.47;;;5.35;;
71888;SDS011;59762;49.998;14.858;2023-08-06T08:42:44;5.75;;;4.25;;
71888;SDS011;59762;49.998;14.858;2023-08-06T08:45:13;7.13;;;5.10;;
71888;SDS011;59762;49.998;14.858;2023-08-06T08:47:40;6.88;;;5.63;;
71888;SDS011;59762;49.998;14.858;2023-08-06T08:50:11;13.65;;;5.93;;
71888;SDS011;59762;49.998;14.858;2023-08-06T08:52:38;10.88;;;5.35;;
71888;SDS011;59762;49.998;14.858;2023-08-06T08:55:09;8.18;;;4.78;;
71888;SDS011;59762;49.998;14.858;2023-08-06T08:57:36;7.93;;;6.43;;
71888;SDS011;59762;49.998;14.858;2023-08-06T09:00:02;8.00;;;6.15;;
71888;SDS011;59762;49.998;14.858;2023-08-06T09:02:28;7.65;;;6.00;;
71888;SDS011;59762;49.998;14.858;2023-08-06T09:04:59;7.07;;;5.75;;
71888;SDS011;59762;49.998;14.858;2023-08-06T09:07:33;9.65;;;6.50;;
71888;SDS011;59762;49.998;14.858;2023-08-06T09:10:04;11.43;;;6.60;;
71888;SDS011;59762;49.998;14.858;2023-08-06T09:12:32;9.63;;;6.35;;
71888;SDS011;59762;49.998;14.858;2023-08-06T09:14:58;9.50;;;6.72;;
71888;SDS011;59762;49.998;14.858;2023-08-06T09:17:24;9.23;;;6.95;;
71888;SDS011;59762;49.998;14.858;2023-08-06T09:19:49;8.05;;;6.50;;
71888;SDS011;59762;49.998;14.858;2023-08-06T09:22:15;9.73;;;7.20;;
71888;SDS011;59762;49.998;14.858;2023-08-06T09:24:41;10.13;;;7.30;;
71888;SDS011;59762;49.998;14.858;2023-08-06T09:27:13;12.25;;;8.02;;
71888;SDS011;59762;49.998;14.858;2023-08-06T09:29:40;11.77;;;8.07;;
71888;SDS011;59762;49.998;14.858;2023-08-06T09:32:10;11.77;;;8.88;;
71888;SDS011;59762;49.998;14.858;2023-08-06T09:34:45;11.93;;;9.23;;
71888;SDS011;59762;49.998;14.858;2023-08-06T09:37:11;12.90;;;9.48;;
71888;SDS011;59762;49.998;14.858;2023-08-06T09:39:40;13.95;;;9.35;;
71888;SDS011;59762;49.998;14.858;2023-08-06T09:42:06;11.20;;;8.98;;
71888;SDS011;59762;49.998;14.858;2023-08-06T09:44:33;14.85;;;9.10;;
71888;SDS011;59762;49.998;14.858;2023-08-06T09:47:01;15.30;;;9.20;;
71888;SDS011;59762;49.998;14.858;2023-08-06T09:49:40;12.50;;;9.00;;
71888;SDS011;59762;49.998;14.858;2023-08-06T09:52:11;9.75;;;8.25;;
71888;SDS011;59762;49.998;14.858;2023-08-06T09:54:38;12.75;;;7.78;;
71888;SDS011;59762;49.998;14.858;2023-08-06T09:57:04;9.45;;;7.40;;
71888;SDS011;59762;49.998;14.858;2023-08-06T09:59:31;9.45;;;7.10;;
71888;SDS011;59762;49.998;14.858;2023-08-06T10:01:57;9.65;;;7.53;;
71888;SDS011;59762;49.998;14.858;2023-08-06T10:04:23;9.38;;;6.95;;
71888;SDS011;59762;49.998;14.858;2023-08-06T10:06:49;9.60;;;7.68;;
71888;SDS011;59762;49.998;14.858;2023-08-06T10:09:16;8.23;;;6.70;;
71888;SDS011;59762;49.998;14.858;2023-08-06T10:11:43;8.73;;;6.70;;
71888;SDS011;59762;49.998;14.858;2023-08-06T10:14:22;10.30;;;6.95;;
71888;SDS011;59762;49.998;14.858;2023-08-06T10:16:52;7.57;;;6.15;;
71888;SDS011;59762;49.998;14.858;2023-08-06T10:19:18;8.10;;;5.85;;
71888;SDS011;59762;49.998;14.858;2023-08-06T10:24:52;6.70;;;5.65;;
71888;SDS011;59762;49.998;14.858;2023-08-06T10:27:23;6.10;;;4.90;;
71888;SDS011;59762;49.998;14.858;2023-08-06T10:29:53;7.20;;;5.05;;
71888;SDS011;59762;49.998;14.858;2023-08-06T10:32:18;6.05;;;4.93;;
71888;SDS011;59762;49.998;14.858;2023-08-06T10:34:55;5.20;;;4.53;;
71888;SDS011;59762;49.998;14.858;2023-08-06T10:37:22;5.70;;;4.40;;
71888;SDS011;59762;49.998;14.858;2023-08-06T10:39:49;5.57;;;4.60;;
71888;SDS011;59762;49.998;14.858;2023-08-06T10:42:21;6.32;;;4.63;;
71888;SDS011;59762;49.998;14.858;2023-08-06T10:47:42;5.22;;;4.72;;
71888;SDS011;59762;49.998;14.858;2023-08-06T10:50:10;6.38;;;4.63;;
71888;SDS011;59762;49.998;14.858;2023-08-06T10:52:38;8.32;;;5.40;;
71888;SDS011;59762;49.998;14.858;2023-08-06T10:55:04;5.82;;;4.60;;
71888;SDS011;59762;49.998;14.858;2023-08-06T10:57:30;5.60;;;5.00;;
71888;SDS011;59762;49.998;14.858;2023-08-06T10:59:56;5.70;;;5.10;;
71888;SDS011;59762;49.998;14.858;2023-08-06T11:02:21;6.18;;;4.78;;
71888;SDS011;59762;49.998;14.858;2023-08-06T11:04:48;5.53;;;4.55;;
71888;SDS011;59762;49.998;14.858;2023-08-06T11:07:13;8.65;;;5.43;;
71888;SDS011;59762;49.998;14.858;2023-08-06T11:09:39;7.00;;;5.55;;
71888;SDS011;59762;49.998;14.858;2023-08-06T11:12:11;7.93;;;5.30;;
71888;SDS011;59762;49.998;14.858;2023-08-06T11:14:37;4.72;;;4.15;;
71888;SDS011;59762;49.998;14.858;2023-08-06T11:17:04;6.93;;;4.53;;
71888;SDS011;59762;49.998;14.858;2023-08-06T11:19:31;4.82;;;4.03;;
71888;SDS011;59762;49.998;14.858;2023-08-06T11:21:56;4.60;;;3.78;;
71888;SDS011;59762;49.998;14.858;2023-08-06T11:24:24;4.97;;;4.15;;
71888;SDS011;59762;49.998;14.858;2023-08-06T11:26:49;5.35;;;3.95;;
71888;SDS011;59762;49.998;14.858;2023-08-06T11:29:15;5.28;;;4.07;;
71888;SDS011;59762;49.998;14.858;2023-08-06T11:31:41;4.88;;;4.28;;
71888;SDS011;59762;49.998;14.858;2023-08-06T11:34:07;5.78;;;3.85;;
71888;SDS011;59762;49.998;14.858;2023-08-06T11:36:33;5.65;;;4.65;;
71888;SDS011;59762;49.998;14.858;2023-08-06T11:39:02;5.30;;;4.80;;
71888;SDS011;59762;49.998;14.858;2023-08-06T11:41:30;6.90;;;4.70;;
71888;SDS011;59762;49.998;14.858;2023-08-06T11:43:57;8.55;;;4.35;;
71888;SDS011;59762;49.998;14.858;2023-08-06T11:46:26;4.80;;;3.90;;
71888;SDS011;59762;49.998;14.858;2023-08-06T11:48:56;5.80;;;3.60;;
71888;SDS011;59762;49.998;14.858;2023-08-06T11:51:23;5.47;;;3.80;;
71888;SDS011;59762;49.998;14.858;2023-08-06T11:53:53;5.60;;;4.32;;
71888;SDS011;59762;49.998;14.858;2023-08-06T11:56:21;5.53;;;4.40;;
71888;SDS011;59762;49.998;14.858;2023-08-06T11:58:47;4.15;;;3.72;;
71888;SDS011;59762;49.998;14.858;2023-08-06T12:01:13;5.03;;;4.18;;
71888;SDS011;59762;49.998;14.858;2023-08-06T12:03:39;3.63;;;3.05;;
71888;SDS011;59762;49.998;14.858;2023-08-06T12:06:06;3.60;;;3.25;;
71888;SDS011;59762;49.998;14.858;2023-08-06T12:08:35;5.57;;;3.35;;
71888;SDS011;59762;49.998;14.858;2023-08-06T12:11:00;5.22;;;3.83;;
71888;SDS011;59762;49.998;14.858;2023-08-06T12:13:26;5.03;;;3.50;;
71888;SDS011;59762;49.998;14.858;2023-08-06T12:15:53;3.40;;;3.10;;
71888;SDS011;59762;49.998;14.858;2023-08-06T12:18:20;4.53;;;3.28;;
71888;SDS011;59762;49.998;14.858;2023-08-06T12:20:45;4.43;;;3.20;;
71888;SDS011;59762;49.998;14.858;2023-08-06T12:23:11;3.42;;;2.90;;
71888;SDS011;59762;49.998;14.858;2023-08-06T12:25:40;4.82;;;2.88;;
71888;SDS011;59762;49.998;14.858;2023-08-06T12:28:07;2.83;;;2.50;;
71888;SDS011;59762;49.998;14.858;2023-08-06T12:30:34;4.00;;;2.47;;
71888;SDS011;59762;49.998;14.858;2023-08-06T12:33:00;4.63;;;2.00;;
71888;SDS011;59762;49.998;14.858;2023-08-06T12:35:25;3.35;;;2.40;;
71888;SDS011;59762;49.998;14.858;2023-08-06T12:37:51;2.90;;;2.28;;
71888;SDS011;59762;49.998;14.858;2023-08-06T12:40:22;2.70;;;2.00;;
71888;SDS011;59762;49.998;14.858;2023-08-06T12:42:49;4.45;;;2.40;;
71888;SDS011;59762;49.998;14.858;2023-08-06T12:45:15;3.33;;;2.10;;
71888;SDS011;59762;49.998;14.858;2023-08-06T12:47:41;2.42;;;2.05;;
71888;SDS011;59762;49.998;14.858;2023-08-06T12:50:07;2.20;;;1.98;;
71888;SDS011;59762;49.998;14.858;2023-08-06T12:52:33;2.70;;;2.13;;
71888;SDS011;59762;49.998;14.858;2023-08-06T12:54:58;3.83;;;2.10;;
71888;SDS011;59762;49.998;14.858;2023-08-06T12:57:24;4.78;;;2.75;;
71888;SDS011;59762;49.998;14.858;2023-08-06T12:59:50;4.47;;;2.90;;
71888;SDS011;59762;49.998;14.858;2023-08-06T13:02:16;13.50;;;7.55;;
71888;SDS011;59762;49.998;14.858;2023-08-06T13:04:41;8.52;;;4.70;;
71888;SDS011;59762;49.998;14.858;2023-08-06T13:07:07;19.90;;;9.00;;
71888;SDS011;59762;49.998;14.858;2023-08-06T13:09:33;11.85;;;5.47;;
71888;SDS011;59762;49.998;14.858;2023-08-06T13:11:59;7.25;;;4.43;;
71888;SDS011;59762;49.998;14.858;2023-08-06T13:14:25;6.80;;;4.00;;
71888;SDS011;59762;49.998;14.858;2023-08-06T13:16:51;4.70;;;2.88;;
71888;SDS011;59762;49.998;14.858;2023-08-06T13:19:17;4.85;;;2.40;;
71888;SDS011;59762;49.998;14.858;2023-08-06T13:24:11;4.65;;;2.75;;
71888;SDS011;59762;49.998;14.858;2023-08-06T13:26:37;4.20;;;2.90;;
71888;SDS011;59762;49.998;14.858;2023-08-06T13:29:02;3.15;;;2.75;;
71888;SDS011;59762;49.998;14.858;2023-08-06T13:31:28;3.80;;;3.13;;
71888;SDS011;59762;49.998;14.858;2023-08-06T13:33:54;5.35;;;3.63;;
71888;SDS011;59762;49.998;14.858;2023-08-06T13:36:21;3.38;;;2.70;;
71888;SDS011;59762;49.998;14.858;2023-08-06T13:38:48;5.18;;;3.30;;
71888;SDS011;59762;49.998;14.858;2023-08-06T13:41:13;4.25;;;3.47;;
71888;SDS011;59762;49.998;14.858;2023-08-06T13:43:39;4.53;;;3.50;;
71888;SDS011;59762;49.998;14.858;2023-08-06T13:46:05;4.32;;;3.72;;
71888;SDS011;59762;49.998;14.858;2023-08-06T13:48:31;5.03;;;3.90;;
71888;SDS011;59762;49.998;14.858;2023-08-06T13:50:57;3.22;;;2.90;;
71888;SDS011;59762;49.998;14.858;2023-08-06T13:53:22;4.00;;;3.28;;
71888;SDS011;59762;49.998;14.858;2023-08-06T13:55:48;3.53;;;3.15;;
71888;SDS011;59762;49.998;14.858;2023-08-06T13:58:14;4.75;;;3.60;;
71888;SDS011;59762;49.998;14.858;2023-08-06T14:00:39;6.25;;;4.05;;
71888;SDS011;59762;49.998;14.858;2023-08-06T14:03:05;5.82;;;4.00;;
71888;SDS011;59762;49.998;14.858;2023-08-06T14:05:31;4.95;;;3.85;;
71888;SDS011;59762;49.998;14.858;2023-08-06T14:07:57;3.75;;;3.00;;
71888;SDS011;59762;49.998;14.858;2023-08-06T14:10:23;5.13;;;2.67;;
71888;SDS011;59762;49.998;14.858;2023-08-06T14:12:48;3.13;;;2.78;;
71888;SDS011;59762;49.998;14.858;2023-08-06T14:15:14;3.33;;;2.70;;
71888;SDS011;59762;49.998;14.858;2023-08-06T14:17:40;3.58;;;2.80;;
71888;SDS011;59762;49.998;14.858;2023-08-06T14:20:06;4.03;;;2.78;;
71888;SDS011;59762;49.998;14.858;2023-08-06T14:22:34;3.88;;;3.13;;
71888;SDS011;59762;49.998;14.858;2023-08-06T14:25:00;3.00;;;2.22;;
71888;SDS011;59762;49.998;14.858;2023-08-06T14:27:25;4.43;;;2.55;;
71888;SDS011;59762;49.998;14.858;2023-08-06T14:29:51;4.60;;;3.08;;
71888;SDS011;59762;49.998;14.858;2023-08-06T14:32:17;3.83;;;3.00;;
71888;SDS011;59762;49.998;14.858;2023-08-06T14:34:46;4.50;;;2.65;;
71888;SDS011;59762;49.998;14.858;2023-08-06T14:37:12;3.50;;;2.88;;
71888;SDS011;59762;49.998;14.858;2023-08-06T14:39:38;8.75;;;4.65;;